WI36 weather

Dolhun Field
Lake Tomahawk, Wisconsin, United States

Public forecast

Using degrees Fahrenheit for public forecast. Weather courtesy of forecast.io.

Closest aviation weather report (METAR) to Dolhun Field

Closest report is Lakeland-Noble F. Lee Memorial field, 7.6 nm (14.2 km) NW. Retrieved 2019/10/14 04:35 UTC (0 seconds ago):

KARV 140435Z AUTO 28005KT 10SM OVC007 03/01 A2980 RMK AO2 T00250010

Closest aviation forecast (TAF) to Dolhun Field

Closest forecast is Rhinelander Oneida County Airport, 13.4 nm (24.7 km) SSE. Retrieved 2019-10-14 00:45 UTC (4 hours ago):

TAF KRHI 132342Z 1400/1424 26008KT P6SM BKN035 FM140300 27005KT P6SM BKN022 FM140600 27005KT P6SM BKN025 FM141700 25008KT P6SM SCT026 FM141900 25004KT P6SM SCT040